Julesburg, Colorado
Current Conditions -  °F | °C
As of 8:15 AM on Monday 24 Nov 2014 (Local Time) from KOGA Reporting Station
Clear Clear  
Wind Chill: 27°   Ceiling: Unl
Heat Index: 36°   Visibility: 10mi
Dew Point: 17°   Wind: 13mph
Humidity: 47%   Direction: 320°NW
Pressure: 29.84"   Gusts: NA
Location:  40.99°N, 102.26°W
Report Text: KOGA 241515Z AUTO 32011KT 10SM CLR 02/M08 A2984 RMK AO2 T00211082
Loading
Personal Weather Stations






























Interactive Weather Map New forecast layout! Learn more

10-Day Weather Forecast

Advertisements
Track Severe Weather on mobile